This is the latest recevied weather packets stored in our database for station/object LRBS. If no packets are shown the sender has not sent any weather packets the latest 10 day(s).
| Time | Temp. | Humidity | Pressure | Rain* | Wind** | Luminosity | Snow |
|---|---|---|---|---|---|---|---|
| 1777977196 | 22.78° C | 44% | 1015 hPa | - | - | - | - |
| 1777976295 | 22.22° C | 47% | 1015 hPa | - | - | - | - |
| 1777975394 | 22.22° C | 47% | 1015 hPa | - | - | - | - |
| 1777974495 | 22.22° C | 44% | 1015 hPa | - | - | - | - |
| 1777973594 | 22.22° C | 44% | 1015 hPa | - | - | - | - |
| 1777972694 | 22.22° C | 44% | 1016 hPa | - | - | - | - |
| 1777971794 | 22.22° C | 44% | 1016 hPa | - | - | - | - |
| 1777970894 | 21.11° C | 46% | 1016 hPa | - | - | - | - |
| 1777969995 | 21.11° C | 46% | 1016 hPa | - | - | - | - |
| 1777969095 | 21.11° C | 50% | 1016 hPa | - | - | - | - |
| 1777968194 | 21.11° C | 50% | 1016 hPa | - | - | - | - |
| 1777967310 | 20° C | 53% | 1016 hPa | - | - | - | - |
| 1777966394 | 20° C | 53% | 1016 hPa | - | - | - | - |
| 1777965494 | 18.89° C | 56% | 1016 hPa | - | - | - | - |
| 1777964594 | 18.89° C | 56% | 1016 hPa | - | - | - | - |
| 1777963694 | 17.22° C | 59% | 1016 hPa | - | - | - | - |
| 1777962795 | 17.22° C | 59% | 1016 hPa | - | - | - | - |
| 1777961894 | 16.11° C | 72% | 1016 hPa | - | - | - | - |
| 1777960994 | 16.11° C | 72% | 1016 hPa | - | - | - | - |
| 1777960094 | 13.89° C | 77% | 1016 hPa | - | - | - | - |
| 1777959195 | 13.89° C | 77% | 1016 hPa | - | - | - | - |
| 1777958294 | 12.78° C | 77% | 1016 hPa | - | - | - | - |
| 1777957394 | 12.78° C | 77% | 1016 hPa | - | - | - | - |
| 1777956494 | 10° C | 88% | 1016 hPa | - | - | - | - |
| 1777955594 | 10° C | 88% | 1016 hPa | - | - | - | - |
* Rain since midnight (hover to see other rain measurements)
** Current wind speed in m/s (hover to see current wind gust speed)